Weather at Gyro Town Usa STOLport

Public forecast

Using degrees Fahrenheit for public forecast. Weather courtesy of forecast.io.

Closest aviation weather report (METAR) to Gyro Town Usa STOLport

Closest report is Peter O Knight Airport, 17.6 nm (32.7 km) NW. Retrieved 2020/11/30 19:35 UTC (8 minutes ago):

KTPF 301935Z AUTO 31009G16KT 265V325 10SM BKN033 BKN041 BKN100 22/13 A2988 RMK AO2

Closest aviation forecast (TAF) to Gyro Town Usa STOLport

Closest forecast is Mac Dill Air Force Base, 17.7 nm (32.8 km) NW. Retrieved 2020/11/30 17:57 UTC (2 hours ago):

TAF KMCF 301700Z 3017/0123 32009KT 9999 BKN035 QNH2992INS BECMG 0100/0101 35015G20KT 9999 FEW025 QNH3000INS BECMG 0112/0113 01012KT 9999 SKC QNH3016INS BECMG 0122/0123 01009KT 9999 SKC QNH3019INS TX21/3018Z TN05/0113Z